Time;durP1;ratioP1;P1;durP2;ratioP2;P2;SDS_P1;SDS_P2;PMS_P1;PMS_P2;Temp;Humidity;BMP_temperature;BMP_pressure;BME280_temperature;BME280_humidity;BME280_pressure;Samples;Min_cycle;Max_cycle;Signal;HPM_P1;HPM_P2
2021/12/19 00:01:28;;;;;;;14.63;7.32;;;;;;;1.31;75.28;100413.22;3145366;28;20064;-63
2021/12/19 00:03:19;;;;;;;15.68;8.15;;;;;;;1.22;75.43;100396.97;3146057;28;20117;-63
2021/12/19 00:08:40;;;;;;;13.00;7.00;;;;;;;1.19;75.56;100412.34;3146888;28;20414;-63
2021/12/19 00:10:12;;;;;;;14.07;7.53;;;;;;;1.17;75.49;100408.91;3144959;28;20048;-64
2021/12/19 00:11:46;;;;;;;15.05;6.75;;;;;;;1.19;75.37;100409.78;3146767;28;20059;-64
2021/12/19 00:13:17;;;;;;;;;;;;;;;0.97;75.52;100404.56;3145914;28;20487;-63
2021/12/19 00:14:49;;;;;;;15.55;7.13;;;;;;;0.99;75.82;100400.31;3146177;28;19936;-63
2021/12/19 00:16:22;;;;;;;13.40;6.75;;;;;;;1.07;75.75;100402.91;3144670;28;20370;-63
2021/12/19 00:17:54;;;;;;;15.07;7.37;;;;;;;1.08;75.60;100404.63;3144685;28;20127;-64
2021/12/19 00:19:26;;;;;;;14.15;7.35;;;;;;;1.10;75.29;100410.63;3145261;28;20332;-64
2021/12/19 00:20:58;;;;;;;16.55;7.05;;;;;;;1.09;75.57;100401.19;3145210;28;20052;-63
2021/12/19 00:22:32;;;;;;;15.70;7.40;;;;;;;1.09;75.26;100402.03;3144483;28;20086;-64
2021/12/19 00:24:04;;;;;;;;;;;;;;;0.88;75.55;100399.41;3148011;28;20658;-64
2021/12/19 00:25:36;;;;;;;18.33;7.63;;;;;;;0.90;75.82;100401.13;3145742;28;19924;-64
2021/12/19 00:27:09;;;;;;;15.80;7.30;;;;;;;0.99;75.64;100402.88;3147421;28;20086;-64
2021/12/19 00:28:41;;;;;;;16.95;7.47;;;;;;;0.92;75.37;100375.50;3146596;28;20110;-64
2021/12/19 00:30:13;;;;;;;14.07;6.78;;;;;;;1.01;75.22;100393.50;3145479;28;20505;-64
2021/12/19 00:31:46;;;;;;;13.38;7.15;;;;;;;1.00;75.25;100391.75;3147052;28;20052;-64
2021/12/19 00:33:18;;;;;;;13.30;7.10;;;;;;;0.95;75.19;100382.34;3144413;28;20048;-64
2021/12/19 00:34:51;;;;;;;14.60;6.38;;;;;;;1.00;75.18;100385.78;3143952;28;20052;-64
2021/12/19 00:36:23;;;;;;;15.23;7.65;;;;;;;0.98;75.20;100385.78;3146034;28;20567;-64
2021/12/19 00:37:57;;;;;;;13.10;6.43;;;;;;;1.00;75.08;100386.63;3143803;28;20134;-64
2021/12/19 00:39:30;;;;;;;14.43;6.45;;;;;;;0.99;75.00;100384.91;3145518;28;20109;-64
2021/12/19 00:41:02;;;;;;;11.20;6.00;;;;;;;0.97;75.07;100383.19;3145553;28;20430;-64
2021/12/19 00:42:37;;;;;;;13.15;6.03;;;;;;;0.98;75.11;100379.81;3145584;28;20277;-64
2021/12/19 00:44:11;;;;;;;14.85;6.20;;;;;;;0.95;74.95;100377.19;3146794;28;20047;-64
2021/12/19 00:45:43;;;;;;;12.65;6.30;;;;;;;0.91;75.02;100371.22;3145941;28;20052;-64
2021/12/19 00:47:15;;;;;;;12.80;5.50;;;;;;;0.93;74.97;100374.66;3146358;28;20504;-64
2021/12/19 00:48:50;;;;;;;12.63;5.50;;;;;;;0.94;74.77;100373.78;3145374;28;20386;-64
2021/12/19 00:50:22;;;;;;;12.93;5.85;;;;;;;0.91;74.83;100364.38;3145759;28;20104;-64
2021/12/19 00:51:54;;;;;;;10.07;4.60;;;;;;;0.88;74.79;100364.38;3144164;28;20217;-63
2021/12/19 00:53:27;;;;;;;10.88;4.95;;;;;;;0.87;74.70;100367.78;3146000;28;20439;-63
2021/12/19 00:54:58;;;;;;;11.65;5.10;;;;;;;0.86;74.81;100368.66;3145859;28;20047;-63
2021/12/19 00:56:31;;;;;;;10.00;5.13;;;;;;;0.84;74.77;100364.38;3146012;28;20048;-63
2021/12/19 00:58:05;;;;;;;9.95;4.47;;;;;;;0.86;74.59;100363.53;3143089;28;20058;-63
2021/12/19 00:59:37;;;;;;;10.45;4.90;;;;;;;0.84;74.63;100365.22;3145782;28;20421;-64
2021/12/19 01:01:10;;;;;;;10.20;4.75;;;;;;;0.84;74.54;100370.34;3145901;28;20079;-64
2021/12/19 01:02:43;;;;;;;8.95;4.57;;;;;;;0.83;74.46;100362.66;3145583;28;20074;-63
2021/12/19 01:04:18;;;;;;;10.80;4.88;;;;;;;0.83;74.40;100365.22;3152605;28;20052;-63
2021/12/19 01:05:52;;;;;;;10.95;4.45;;;;;;;0.81;74.58;100366.91;3153710;28;20188;-63
2021/12/19 01:07:24;;;;;;;9.35;4.43;;;;;;;0.78;74.27;100360.06;3153032;28;20668;-63
2021/12/19 01:08:56;;;;;;;9.90;4.50;;;;;;;0.79;74.33;100355.78;3155177;28;20052;-63
2021/12/19 01:10:28;;;;;;;8.93;3.90;;;;;;;0.79;74.35;100353.22;3154628;28;20449;-63
2021/12/19 01:12:00;;;;;;;7.03;3.83;;;;;;;0.78;74.27;100354.94;3153353;28;20055;-63
2021/12/19 01:13:33;;;;;;;8.30;4.20;;;;;;;0.78;74.27;100354.94;3155310;28;20449;-63
2021/12/19 01:15:06;;;;;;;7.72;3.60;;;;;;;0.75;74.23;100349.81;3156005;28;20116;-63
2021/12/19 01:16:38;;;;;;;7.95;4.05;;;;;;;0.76;74.22;100355.78;3153822;28;20413;-63
2021/12/19 01:18:10;;;;;;;8.13;3.92;;;;;;;0.78;74.26;100348.97;3154755;28;20080;-65
2021/12/19 01:19:44;;;;;;;10.30;4.30;;;;;;;0.77;74.15;100347.22;3154582;28;20056;-65
2021/12/19 01:21:16;;;;;;;8.50;3.90;;;;;;;0.77;74.34;100348.13;3154096;28;20075;-64
2021/12/19 01:22:50;;;;;;;9.55;4.82;;;;;;;0.78;74.30;100343.84;3156148;28;20464;-64
2021/12/19 01:24:21;;;;;;;;;;;;;;;0.56;74.38;100341.19;3154948;28;20097;-65
2021/12/19 01:25:53;;;;;;;9.48;4.03;;;;;;;0.60;74.81;100345.47;3154284;28;19927;-64
2021/12/19 01:27:25;;;;;;;7.68;4.25;;;;;;;0.67;74.55;100347.19;3154047;28;20051;-64
2021/12/19 01:28:59;;;;;;;9.25;4.40;;;;;;;0.70;74.36;100337.81;3154902;28;20060;-64
2021/12/19 01:30:30;;;;;;;9.88;5.05;;;;;;;0.16;74.20;100247.94;3155824;28;20098;-64
2021/12/19 01:32:03;;;;;;;10.70;5.05;;;;;;;0.71;74.23;100337.84;3154048;28;20509;-63
2021/12/19 01:33:33;;;;;;;13.52;6.43;;;;;;;0.72;74.08;100331.84;3156921;28;20453;-64
2021/12/19 01:35:08;;;;;;;17.80;7.35;;;;;;;0.46;74.06;100290.75;3154783;28;20051;-64
2021/12/19 01:36:40;;;;;;;17.15;7.13;;;;;;;0.74;74.16;100332.72;3153686;28;20044;-64
2021/12/19 01:38:12;;;;;;;15.60;7.03;;;;;;;0.62;74.19;100313.03;3155856;28;20127;-65
2021/12/19 01:39:44;;;;;;;13.20;6.28;;;;;;;0.54;74.38;100304.44;3154137;28;20048;-65
2021/12/19 01:41:16;;;;;;;17.55;7.47;;;;;;;0.73;74.08;100319.88;3154512;28;20052;-65
2021/12/19 01:42:50;;;;;;;14.00;5.97;;;;;;;0.73;74.08;100320.72;3154195;28;20049;-65
2021/12/19 01:44:25;;;;;;;16.80;6.72;;;;;;;0.75;74.05;100331.00;3152214;28;20048;-64
2021/12/19 01:45:58;;;;;;;13.35;5.65;;;;;;;0.72;74.16;100324.16;3155832;28;20044;-64
2021/12/19 01:47:28;;;;;;;12.50;5.63;;;;;;;0.72;74.05;100318.19;3154730;28;20052;-64
2021/12/19 01:49:00;;;;;;;11.00;5.93;;;;;;;0.72;74.01;100321.59;3155771;28;20048;-64
2021/12/19 01:50:33;;;;;;;13.68;5.80;;;;;;;0.69;74.26;100319.03;3153271;28;20048;-64
2021/12/19 01:52:06;;;;;;;12.38;5.53;;;;;;;0.36;73.97;100266.81;3155282;28;20520;-63
2021/12/19 01:53:37;;;;;;;11.40;5.75;;;;;;;0.71;74.13;100316.44;3154699;28;20043;-64
2021/12/19 01:55:09;;;;;;;13.57;6.45;;;;;;;0.72;74.00;100323.31;3154863;28;20052;-64
2021/12/19 01:56:41;;;;;;;11.50;5.47;;;;;;;0.71;73.86;100317.34;3153959;28;20128;-64
2021/12/19 01:58:13;;;;;;;12.82;5.70;;;;;;;0.72;73.94;100316.47;3152232;28;20144;-63
2021/12/19 01:59:46;;;;;;;10.45;5.15;;;;;;;0.74;73.84;100316.47;3153433;28;20048;-64
2021/12/19 02:01:18;;;;;;;13.73;5.57;;;;;;;0.70;73.90;100314.75;3155215;28;20059;-65
2021/12/19 02:02:49;;;;;;;10.30;5.70;;;;;;;0.70;74.06;100315.59;3155346;28;20060;-65
2021/12/19 02:04:23;;;;;;;11.40;5.32;;;;;;;0.68;73.90;100307.03;3153578;28;20055;-65
2021/12/19 02:05:54;;;;;;;10.88;5.50;;;;;;;0.62;74.05;100302.78;3153420;28;20631;-65
2021/12/19 02:07:28;;;;;;;10.15;5.45;;;;;;;0.67;73.89;100311.31;3154249;28;20504;-64
2021/12/19 02:09:05;;;;;;;;;;;;;;;0.49;74.18;100312.97;3158809;28;20127;-64
2021/12/19 02:10:38;;;;;;;11.90;5.25;;;;;;;0.51;74.51;100312.13;3157035;28;19927;-65
2021/12/19 02:12:11;;;;;;;10.05;5.43;;;;;;;0.57;74.42;100307.03;3155726;28;20453;-64
2021/12/19 02:13:43;;;;;;;11.43;5.72;;;;;;;0.61;74.38;100310.44;3157668;28;20105;-64
2021/12/19 02:15:18;;;;;;;11.43;5.50;;;;;;;0.64;74.11;100311.31;3157087;28;20073;-64
2021/12/19 02:16:50;;;;;;;12.07;6.07;;;;;;;0.64;74.15;100311.31;3158225;28;20131;-64
2021/12/19 02:18:22;;;;;;;10.05;5.00;;;;;;;0.64;74.13;100313.88;3156251;28;20048;-64
2021/12/19 02:19:56;;;;;;;10.65;5.45;;;;;;;0.66;73.91;100303.63;3156538;28;20052;-64
2021/12/19 02:21:29;;;;;;;12.50;5.38;;;;;;;0.65;74.00;100297.66;3155824;28;20059;-64
2021/12/19 02:23:01;;;;;;;;;;;;;;;0.46;74.10;100301.00;3156527;28;20044;-64
2021/12/19 02:24:34;;;;;;;11.85;5.20;;;;;;;0.50;74.57;100300.16;3157168;28;19929;-64
2021/12/19 02:26:06;;;;;;;10.07;5.00;;;;;;;0.53;74.29;100291.63;3157189;28;20044;-65
2021/12/19 02:27:37;;;;;;;10.77;5.00;;;;;;;0.61;74.09;100302.75;3156991;28;20426;-65
2021/12/19 02:29:09;;;;;;;10.07;5.00;;;;;;;0.61;73.97;100288.22;3157690;28;20060;-65
2021/12/19 02:30:42;;;;;;;12.73;5.70;;;;;;;0.61;73.94;100280.53;3155497;28;20048;-65
2021/12/19 02:32:12;;;;;;;9.27;4.73;;;;;;;0.61;74.01;100285.66;3158900;28;20094;-64
2021/12/19 02:33:58;;;;;;;10.45;4.75;;;;;;;0.63;73.86;100281.41;3153556;28;20497;-62
2021/12/19 02:35:33;;;;;;;12.00;5.45;;;;;;;0.60;73.83;100276.28;3154158;28;20055;-64
2021/12/19 02:37:17;;;;;;;11.95;5.70;;;;;;;0.62;73.75;100279.72;3156020;28;20040;-64
2021/12/19 02:39:20;;;;;;;9.43;5.28;;;;;;;0.61;73.79;100269.44;3156420;28;20055;-64
2021/12/19 02:48:13;;;;;;;9.43;5.03;;;;;;;0.59;73.88;100269.44;3155121;28;20048;-65
2021/12/19 02:49:45;;;;;;;9.10;4.60;;;;;;;0.62;73.73;100258.31;3155315;28;20079;-64
2021/12/19 02:51:17;;;;;;;9.95;5.15;;;;;;;0.65;73.74;100260.91;3154871;28;20052;-63
2021/12/19 02:52:51;;;;;;;11.43;5.28;;;;;;;0.69;73.54;100252.38;3157156;28;20056;-64
2021/12/19 02:54:24;;;;;;;11.50;5.13;;;;;;;0.71;73.57;100250.69;3156553;28;20047;-64
2021/12/19 02:55:55;;;;;;;10.35;4.38;;;;;;;0.68;73.48;100238.72;3155838;28;20101;-65
2021/12/19 02:57:27;;;;;;;8.32;4.57;;;;;;;0.73;73.42;100248.09;3155427;28;20513;-64
2021/12/19 02:59:00;;;;;;;9.52;4.85;;;;;;;0.67;73.34;100229.28;3154435;28;20048;-65
2021/12/19 03:00:32;;;;;;;9.32;5.13;;;;;;;0.75;73.33;100246.41;3156200;28;20052;-64
2021/12/19 03:02:04;;;;;;;9.55;5.13;;;;;;;0.79;73.11;100241.28;3156113;28;20044;-65
2021/12/19 03:03:36;;;;;;;10.30;4.82;;;;;;;0.81;73.18;100243.84;3155522;28;20056;-64
2021/12/19 03:05:09;;;;;;;10.32;5.75;;;;;;;0.79;73.15;100248.13;3156301;28;20051;-64
2021/12/19 03:06:46;;;;;;;9.27;4.82;;;;;;;0.82;73.04;100245.56;3155479;28;20044;-64
2021/12/19 03:08:20;;;;;;;10.20;4.75;;;;;;;0.83;72.91;100247.28;3155133;28;20440;-63
2021/12/19 03:10:03;;;;;;;9.50;4.47;;;;;;;0.80;73.10;100240.44;3156271;28;20139;-64
2021/12/19 03:13:31;;;;;;;11.75;4.53;;;;;;;0.61;73.44;100244.66;3154677;28;19924;-64
2021/12/19 03:18:40;;;;;;;9.68;4.82;;;;;;;0.76;73.04;100248.13;3155927;28;20611;-64
2021/12/19 03:20:13;;;;;;;9.18;4.35;;;;;;;0.80;73.09;100249.81;3155163;28;20095;-64
2021/12/19 03:21:45;;;;;;;9.82;4.95;;;;;;;0.81;72.88;100246.41;3155810;28;20056;-64
2021/12/19 03:23:17;;;;;;;9.40;4.82;;;;;;;0.83;72.86;100249.84;3153691;28;20040;-64
2021/12/19 03:24:50;;;;;;;11.63;4.97;;;;;;;0.85;72.61;100243.84;3156055;28;20056;-64
2021/12/19 03:26:22;;;;;;;9.60;5.30;;;;;;;0.84;72.63;100238.72;3157102;28;20040;-64
2021/12/19 03:27:54;;;;;;;8.73;4.63;;;;;;;0.87;72.51;100238.72;3155235;28;20056;-64
2021/12/19 03:29:25;;;;;;;8.20;4.50;;;;;;;0.89;72.48;100240.44;3155910;28;20390;-64
2021/12/19 03:30:57;;;;;;;9.80;4.38;;;;;;;0.93;72.37;100235.31;3157112;28;20059;-64
2021/12/19 03:32:29;;;;;;;8.30;4.70;;;;;;;0.92;72.32;100234.47;3155958;28;20139;-63
2021/12/19 03:34:01;;;;;;;8.50;4.25;;;;;;;0.94;72.34;100237.88;3158252;28;20490;-64
2021/12/19 03:35:34;;;;;;;9.32;4.95;;;;;;;0.93;72.27;100233.63;3156221;28;20048;-64
2021/12/19 03:37:05;;;;;;;7.33;4.37;;;;;;;0.93;72.22;100228.47;3155132;28;20105;-64
2021/12/19 03:38:41;;;;;;;9.45;4.47;;;;;;;0.90;72.16;100223.34;3155905;28;20044;-64
2021/12/19 03:40:22;;;;;;;8.38;4.45;;;;;;;0.94;72.26;100227.63;3154586;28;20113;-64
2021/12/19 03:41:56;;;;;;;9.35;4.15;;;;;;;0.91;72.15;100225.91;3153641;28;20056;-64
2021/12/19 03:43:28;;;;;;;7.80;4.45;;;;;;;0.92;72.09;100216.53;3155626;28;20058;-64
2021/12/19 03:45:00;;;;;;;9.80;4.68;;;;;;;0.98;72.01;100225.94;3156273;28;20043;-64
2021/12/19 03:46:31;;;;;;;9.10;4.50;;;;;;;0.98;71.96;100219.09;3155840;28;20066;-64
2021/12/19 03:48:05;;;;;;;10.43;4.82;;;;;;;0.98;71.87;100219.09;3154881;28;20627;-65
2021/12/19 03:49:37;;;;;;;8.00;4.40;;;;;;;1.01;71.74;100221.66;3153708;28;20047;-64
2021/12/19 03:51:11;;;;;;;8.80;4.97;;;;;;;1.01;71.76;100216.53;3154083;28;20109;-64
2021/12/19 03:52:43;;;;;;;9.98;4.45;;;;;;;1.00;71.71;100209.66;3155972;28;20044;-64
2021/12/19 03:54:15;;;;;;;8.35;4.00;;;;;;;1.02;71.62;100217.38;3154398;28;20397;-65
2021/12/19 03:55:48;;;;;;;9.30;4.63;;;;;;;1.02;71.54;100212.25;3154352;28;20048;-64
2021/12/19 03:57:20;;;;;;;7.28;4.03;;;;;;;1.00;71.65;100206.25;3155140;28;20105;-65
2021/12/19 03:58:53;;;;;;;8.02;4.55;;;;;;;1.02;71.37;100207.97;3155064;28;20056;-64
2021/12/19 04:00:27;;;;;;;8.00;4.78;;;;;;;1.02;71.44;100204.56;3155387;28;20147;-64
2021/12/19 04:01:59;;;;;;;9.90;4.82;;;;;;;1.02;71.44;100202.00;3154923;28;20109;-64
2021/12/19 04:03:31;;;;;;;7.28;4.22;;;;;;;1.02;71.33;100199.44;3155452;28;20048;-64
2021/12/19 04:05:03;;;;;;;9.05;4.65;;;;;;;1.04;71.24;100202.84;3154956;28;20133;-64
2021/12/19 04:06:35;;;;;;;9.38;4.53;;;;;;;1.04;71.39;100203.72;3156564;28;20056;-64
2021/12/19 04:08:07;;;;;;;8.18;4.55;;;;;;;1.05;71.19;100205.41;3154107;28;20051;-64
2021/12/19 04:09:39;;;;;;;9.38;4.80;;;;;;;1.06;71.06;100212.22;3155039;28;20589;-64
2021/12/19 04:11:12;;;;;;;11.43;4.20;;;;;;;1.08;71.00;100204.56;3154907;28;20044;-64
2021/12/19 04:12:44;;;;;;;;;;;;;;;0.86;71.30;100206.28;3153713;28;20060;-64
2021/12/19 04:14:16;;;;;;;8.90;4.60;;;;;;;0.86;71.61;100194.28;3156836;28;19927;-64
2021/12/19 04:15:48;;;;;;;9.30;5.20;;;;;;;0.96;71.46;100202.84;3153861;28;20121;-64
2021/12/19 04:17:20;;;;;;;11.15;5.85;;;;;;;0.46;71.14;100108.81;3156429;28;20050;-64
2021/12/19 04:18:52;;;;;;;8.65;4.63;;;;;;;1.00;71.01;100198.56;3153907;28;20048;-64
2021/12/19 04:20:24;;;;;;;8.05;4.40;;;;;;;1.03;71.11;100201.97;3154620;28;20115;-65
2021/12/19 04:21:56;;;;;;;8.95;4.85;;;;;;;1.03;70.88;100207.09;3156645;28;20055;-64
2021/12/19 04:23:30;;;;;;;9.02;4.95;;;;;;;1.06;70.83;100206.25;3154654;28;20066;-64
2021/12/19 04:25:01;;;;;;;9.73;5.13;;;;;;;1.05;70.73;100207.97;3155148;28;20549;-64
2021/12/19 04:26:34;;;;;;;9.95;4.68;;;;;;;1.01;70.68;100195.16;3154087;28;20080;-64
2021/12/19 04:28:07;;;;;;;7.50;4.05;;;;;;;1.03;70.73;100207.09;3153903;28;20105;-64
2021/12/19 04:29:38;;;;;;;7.53;4.30;;;;;;;1.03;70.82;100198.56;3154427;28;20048;-63
2021/12/19 04:31:11;;;;;;;7.57;4.18;;;;;;;1.05;70.68;100200.28;3154724;28;20429;-63
2021/12/19 04:32:46;;;;;;;8.00;4.10;;;;;;;1.02;70.44;100202.84;3154088;28;20473;-64
2021/12/19 04:34:18;;;;;;;7.32;3.88;;;;;;;1.03;70.67;100206.25;3154462;28;20460;-63
2021/12/19 04:35:50;;;;;;;8.70;4.80;;;;;;;1.03;70.45;100209.66;3154508;28;20066;-64
2021/12/19 04:37:44;;;;;;;8.32;4.13;;;;;;;1.03;70.38;100206.25;3156302;28;20415;-64
2021/12/19 04:39:29;;;;;;;;;;;;;;;0.82;70.87;100212.22;3154185;28;20838;-64
2021/12/19 04:52:38;;;;;;;7.38;4.45;;;;;;;0.94;70.60;100204.53;3153492;28;20449;-64
2021/12/19 04:54:23;;;;;;;8.65;4.10;;;;;;;0.92;70.62;100198.56;3152558;28;20048;-64
2021/12/19 04:57:50;;;;;;;6.65;3.42;;;;;;;0.66;70.59;100153.25;3153005;28;20043;-64
2021/12/19 04:59:49;;;;;;;7.18;4.05;;;;;;;0.45;70.29;100099.44;3154507;28;20054;-64
2021/12/19 05:01:40;;;;;;;6.07;3.50;;;;;;;0.93;70.34;100184.88;3154932;28;20059;-63
2021/12/19 05:03:25;;;;;;;7.63;4.05;;;;;;;0.94;70.48;100185.75;3154488;28;20431;-64
2021/12/19 05:14:30;;;;;;;8.38;4.32;;;;;;;0.96;70.10;100182.31;3153989;28;20488;-64
2021/12/19 05:16:02;;;;;;;8.15;4.35;;;;;;;0.98;70.04;100182.34;3154708;28;20059;-65
2021/12/19 05:17:34;;;;;;;9.32;4.57;;;;;;;1.00;69.81;100183.16;3154968;28;20573;-64
2021/12/19 05:19:11;;;;;;;7.72;4.43;;;;;;;1.02;69.81;100187.44;3153284;28;20044;-64
2021/12/19 05:20:52;;;;;;;8.88;4.63;;;;;;;1.02;69.83;100186.59;3155086;28;21603;-64
2021/12/19 05:22:27;;;;;;;6.47;3.70;;;;;;;1.01;69.88;100184.91;3155140;28;20135;-64
2021/12/19 05:24:21;;;;;;;7.00;3.97;;;;;;;1.01;69.83;100188.31;3154894;28;20060;-65
2021/12/19 05:25:53;;;;;;;8.93;4.25;;;;;;;1.01;69.92;100184.91;3153089;28;20056;-64
2021/12/19 05:27:24;;;;;;;6.82;4.03;;;;;;;1.01;69.89;100179.78;3154678;28;20055;-64
2021/12/19 05:28:57;;;;;;;8.75;4.63;;;;;;;1.01;69.64;100178.06;3154789;28;20052;-63
2021/12/19 05:30:30;;;;;;;9.23;4.03;;;;;;;1.01;69.60;100177.22;3154508;28;20059;-63
2021/12/19 05:32:02;;;;;;;;;;;;;;;0.86;69.85;100180.63;3156146;28;20261;-63
2021/12/19 05:33:35;;;;;;;8.75;4.68;;;;;;;0.89;70.07;100173.78;3153824;28;19989;-64
2021/12/19 05:35:08;;;;;;;10.90;5.15;;;;;;;0.96;69.89;100174.63;3155747;28;20115;-64
2021/12/19 05:44:15;;;;;;;10.43;5.28;;;;;;;0.95;69.78;100174.63;3155749;28;20382;-64
2021/12/19 05:45:47;;;;;;;9.00;4.88;;;;;;;0.94;69.62;100181.47;3157263;28;20074;-64
2021/12/19 05:47:21;;;;;;;10.63;4.78;;;;;;;0.44;69.62;100084.91;3156190;28;20436;-64
2021/12/19 05:48:53;;;;;;;8.48;4.45;;;;;;;1.00;69.72;100172.91;3155217;28;20500;-64
2021/12/19 05:50:25;;;;;;;7.35;4.65;;;;;;;1.01;69.45;100177.22;3154219;28;20521;-64
2021/12/19 05:51:58;;;;;;;9.63;4.95;;;;;;;1.03;69.33;100181.47;3158241;28;20048;-65
2021/12/19 05:53:29;;;;;;;8.68;5.50;;;;;;;1.03;69.46;100171.19;3155835;28;20136;-64
2021/12/19 05:55:01;;;;;;;8.57;4.68;;;;;;;1.07;69.23;100178.06;3157259;28;20052;-64
2021/12/19 05:56:33;;;;;;;8.35;4.47;;;;;;;0.57;69.06;100085.78;3156689;28;20047;-64
2021/12/19 05:58:05;;;;;;;8.27;4.10;;;;;;;1.08;69.03;100174.63;3154385;28;20048;-64
2021/12/19 05:59:36;;;;;;;8.73;4.38;;;;;;;1.07;68.95;100162.66;3157590;28;20052;-64
2021/12/19 06:01:10;;;;;;;8.00;4.28;;;;;;;1.13;68.90;100162.66;3156232;28;20089;-66
2021/12/19 06:02:42;;;;;;;7.47;3.97;;;;;;;1.11;68.81;100164.34;3156604;28;20271;-66
2021/12/19 06:04:14;;;;;;;7.28;4.03;;;;;;;1.11;69.01;100164.34;3157344;28;20052;-66
2021/12/19 06:05:46;;;;;;;7.18;3.60;;;;;;;1.14;68.83;100166.91;3155009;28;20138;-65
2021/12/19 06:07:18;;;;;;;6.70;4.05;;;;;;;1.19;68.65;100163.50;3157767;28;20063;-64
2021/12/19 06:08:50;;;;;;;7.40;4.20;;;;;;;1.21;68.60;100159.22;3157121;28;20117;-63
2021/12/19 06:10:22;;;;;;;8.82;4.90;;;;;;;1.23;68.58;100165.22;3154814;28;20055;-63
2021/12/19 06:11:54;;;;;;;7.97;4.28;;;;;;;1.25;68.42;100156.66;3157004;28;20044;-63
2021/12/19 06:13:26;;;;;;;8.65;4.03;;;;;;;1.29;68.45;100157.50;3156796;28;20056;-63
2021/12/19 06:14:58;;;;;;;7.68;3.78;;;;;;;1.37;68.48;100158.34;3157587;28;20081;-63
2021/12/19 06:16:31;;;;;;;9.25;3.88;;;;;;;1.47;68.33;100156.59;3155569;28;20089;-62
2021/12/19 06:18:04;;;;;;;6.22;3.60;;;;;;;1.47;68.68;100147.19;3156431;28;20048;-65
2021/12/19 06:19:36;;;;;;;6.95;4.18;;;;;;;1.69;68.72;100153.13;3156586;28;20118;-66
2021/12/19 06:21:09;;;;;;;8.60;4.23;;;;;;;1.88;68.64;100153.91;3156433;28;20154;-65
2021/12/19 06:22:41;;;;;;;6.68;4.05;;;;;;;2.02;68.52;100152.13;3155670;28;20325;-65
2021/12/19 06:24:12;;;;;;;6.35;3.78;;;;;;;2.14;68.29;100146.09;3155348;28;20086;-65
2021/12/19 06:25:46;;;;;;;10.30;5.65;;;;;;;2.37;68.16;100148.53;3155304;28;20517;-65
2021/12/19 06:27:18;;;;;;;8.02;4.72;;;;;;;2.56;67.85;100149.25;3156687;28;20048;-65
2021/12/19 06:28:50;;;;;;;9.70;5.20;;;;;;;2.71;67.54;100149.13;3156324;28;20048;-66
2021/12/19 06:30:22;;;;;;;10.90;5.38;;;;;;;2.84;66.88;100146.47;3156963;28;20075;-66
2021/12/19 06:31:56;;;;;;;10.90;4.55;;;;;;;2.49;66.20;100061.03;3148977;28;20068;-64
2021/12/19 06:33:28;;;;;;;7.78;4.30;;;;;;;3.18;66.31;100147.03;3152208;28;20563;-66
2021/12/19 06:35:06;;;;;;;9.85;4.25;;;;;;;3.27;65.89;100138.38;3153242;28;20056;-66
2021/12/19 06:36:40;;;;;;;7.53;3.80;;;;;;;3.45;65.37;100143.31;3152528;28;20494;-67
2021/12/19 06:38:12;;;;;;;7.85;4.05;;;;;;;3.51;64.54;100134.69;3151037;28;20044;-67
2021/12/19 06:39:44;;;;;;;17.25;4.97;;;;;;;3.55;64.29;100116.63;3149952;28;20508;-68
2021/12/19 06:41:16;;;;;;;9.95;5.50;;;;;;;3.76;63.71;100127.53;3151795;28;20121;-68
2021/12/19 06:42:48;;;;;;;18.35;8.88;;;;;;;3.83;63.30;100130.00;3150752;28;20078;-68
2021/12/19 06:44:22;;;;;;;9.32;5.03;;;;;;;3.92;63.18;100125.63;3152702;28;20072;-68
2021/12/19 06:45:55;;;;;;;8.40;3.90;;;;;;;4.03;62.74;100123.75;3154652;28;20055;-64
2021/12/19 06:47:29;;;;;;;9.38;4.55;;;;;;;4.15;62.44;100115.00;3155436;28;20044;-62
2021/12/19 06:49:00;;;;;;;;;;;;;;;4.07;62.83;100123.69;3156512;28;20059;-59
2021/12/19 06:50:32;;;;;;;9.60;4.43;;;;;;;4.24;62.72;100120.03;3157094;28;19927;-67
2021/12/19 06:52:06;;;;;;;8.20;4.18;;;;;;;4.38;62.26;100106.91;3154715;28;20479;-69
2021/12/19 06:53:37;;;;;;;9.77;4.60;;;;;;;4.47;61.58;100109.38;3157080;28;20036;-70
2021/12/19 06:55:12;;;;;;;8.88;4.15;;;;;;;4.63;61.03;100110.84;3154561;28;20056;-67
2021/12/19 06:56:43;;;;;;;9.48;3.92;;;;;;;4.72;60.75;100108.09;3153301;28;20563;-68
2021/12/19 06:58:15;;;;;;;8.98;4.80;;;;;;;4.81;60.39;100107.09;3153639;28;20409;-69
2021/12/19 06:59:48;;;;;;;11.32;5.03;;;;;;;4.88;59.98;100102.69;3152117;28;20097;-69
2021/12/19 07:01:20;;;;;;;13.18;6.07;;;;;;;4.94;59.91;100108.63;3152543;28;20071;-71
2021/12/19 07:02:54;;;;;;;10.60;5.22;;;;;;;4.85;59.45;100070.06;3152889;28;20055;-68
2021/12/19 07:04:26;;;;;;;10.68;5.25;;;;;;;5.14;59.34;100112.56;3150117;28;20063;-69
2021/12/19 07:06:01;;;;;;;8.93;4.90;;;;;;;5.22;58.99;100108.97;3153038;28;20052;-68
2021/12/19 07:07:33;;;;;;;10.95;5.78;;;;;;;5.32;59.00;100106.19;3150265;28;20052;-68
2021/12/19 07:09:05;;;;;;;16.63;9.70;;;;;;;5.41;58.59;100112.06;3150431;28;20505;-73
2021/12/19 07:10:37;;;;;;;10.00;5.88;;;;;;;5.42;57.99;100089.66;3150535;28;20052;-72
2021/12/19 07:12:09;;;;;;;9.00;5.05;;;;;;;5.53;57.64;100098.06;3152352;28;20524;-70
2021/12/19 07:13:41;;;;;;;12.15;4.53;;;;;;;5.58;57.50;100097.94;3151055;28;20457;-77
2021/12/19 07:15:14;;;;;;;8.65;4.30;;;;;;;5.65;57.39;100097.81;3152298;28;20059;-72
2021/12/19 07:16:46;;;;;;;8.07;4.85;;;;;;;5.72;57.01;100103.69;3151661;28;20088;-67
2021/12/19 07:18:19;;;;;;;9.30;4.50;;;;;;;5.81;56.77;100100.06;3154068;28;20433;-72
2021/12/19 07:19:51;;;;;;;;;;;;;;;5.62;56.69;100108.22;3152714;28;20052;-70
2021/12/19 07:21:24;;;;;;;8.15;3.92;;;;;;;5.72;56.99;100095.94;3154671;28;19931;-71
2021/12/19 07:22:55;;;;;;;9.40;4.75;;;;;;;5.83;56.55;100101.75;3153783;28;20056;-69
2021/12/19 07:24:27;;;;;;;9.13;4.60;;;;;;;5.91;55.82;100101.56;3148956;28;20083;-70
2021/12/19 07:25:59;;;;;;;8.35;4.40;;;;;;;5.94;55.50;100098.94;3152418;28;20120;-68
2021/12/19 07:27:31;;;;;;;8.85;4.75;;;;;;;5.91;55.47;100109.31;3153424;28;20070;-72
2021/12/19 07:29:03;;;;;;;8.85;4.40;;;;;;;5.96;55.19;100102.38;3154062;28;20976;-73
2021/12/19 07:30:37;;;;;;;11.05;4.60;;;;;;;5.98;55.08;100102.34;3153194;28;20386;-71
2021/12/19 07:32:10;;;;;;;7.38;4.05;;;;;;;5.85;54.94;100078.44;3154281;28;20483;-69
2021/12/19 07:33:44;;;;;;;;;;;;;;;5.80;55.52;100106.13;3155459;28;20078;-74
2021/12/19 07:35:16;;;;;;;7.60;3.83;;;;;;;5.86;55.17;100112.03;3151582;28;20030;-73
2021/12/19 07:36:51;;;;;;;7.75;3.80;;;;;;;5.98;54.81;100100.59;3149802;28;20766;-75
2021/12/19 07:38:29;;;;;;;8.15;3.92;;;;;;;6.04;54.43;100110.81;3151337;28;20442;-78
2021/12/19 07:40:11;;;;;;;7.20;3.78;;;;;;;6.08;54.38;100096.91;3155351;28;20067;-75
2021/12/19 07:41:43;;;;;;;7.28;3.72;;;;;;;6.09;54.35;100095.19;3150305;28;20043;-71
2021/12/19 07:43:15;;;;;;;6.18;3.42;;;;;;;6.09;54.01;100080.53;3149709;28;20048;-73
2021/12/19 07:44:47;;;;;;;8.18;4.03;;;;;;;6.15;53.73;100098.50;3151847;28;20055;-73
2021/12/19 07:46:19;;;;;;;7.25;4.35;;;;;;;6.11;53.66;100077.91;3152449;28;20056;-72
2021/12/19 07:47:51;;;;;;;9.52;4.68;;;;;;;6.26;53.76;100093.06;3149129;28;20135;-72
2021/12/19 07:49:24;;;;;;;7.65;3.85;;;;;;;6.29;53.51;100089.56;3151224;28;20052;-73
2021/12/19 07:50:56;;;;;;;6.90;3.90;;;;;;;6.33;53.26;100086.00;3152464;28;20523;-68
2021/12/19 07:52:28;;;;;;;7.40;4.05;;;;;;;6.38;52.61;100094.53;3156196;28;20051;-67
2021/12/19 07:54:01;;;;;;;8.25;4.20;;;;;;;6.39;52.70;100091.06;3153828;28;20061;-69
2021/12/19 07:55:33;;;;;;;16.73;7.63;;;;;;;6.29;52.52;100074.06;3155075;28;20529;-73
2021/12/19 07:57:05;;;;;;;9.43;5.32;;;;;;;6.44;52.54;100089.22;3155533;28;20041;-74
2021/12/19 07:58:37;;;;;;;13.88;6.53;;;;;;;6.46;52.23;100078.84;3154485;28;20053;-73
2021/12/19 08:00:12;;;;;;;9.32;4.95;;;;;;;6.44;52.19;100067.66;3154857;28;20056;-72
2021/12/19 08:01:44;;;;;;;9.40;4.70;;;;;;;6.52;52.32;100081.28;3153488;28;20056;-71
2021/12/19 08:03:16;;;;;;;9.20;4.78;;;;;;;6.56;52.26;100077.72;3155031;28;20122;-72
2021/12/19 08:04:49;;;;;;;8.57;4.80;;;;;;;6.64;51.94;100074.94;3152903;28;20056;-73
2021/12/19 08:06:21;;;;;;;10.05;3.85;;;;;;;6.64;52.06;100072.38;3154912;28;20048;-75